Time;durP1;ratioP1;P1;durP2;ratioP2;P2;SDS_P1;SDS_P2;PMS_P1;PMS_P2;Temp;Humidity;BMP_temperature;BMP_pressure;BME280_temperature;BME280_humidity;BME280_pressure;Samples;Min_cycle;Max_cycle;Signal;HPM_P1;HPM_P2
2023/09/03 00:00:24;;;;;;;;;;;;;;;27.01;61.15;101262.31;7395349;19;1866;-50
2023/09/03 00:02:53;;;;;;;;;;;;;;;26.99;61.45;101266.03;7394388;19;1870;-51
2023/09/03 00:05:21;;;;;;;;;;;;;;;26.97;61.26;101256.38;7396340;19;1692;-52
2023/09/03 00:07:52;;;;;;;;;;;;;;;26.96;61.20;101257.41;7395389;19;1595;-50
2023/09/03 00:10:20;;;;;;;;;;;;;;;27.02;61.47;101262.13;7395979;19;1809;-51
2023/09/03 00:12:48;;;;;;;;;;;;;;;27.02;61.37;101255.84;7396285;19;1692;-52
2023/09/03 00:15:21;;;;;;;;;;;;;;;26.94;61.42;101257.56;7395872;19;1709;-52
2023/09/03 00:17:50;;;;;;;;;;;;;;;27.01;61.22;101267.72;7395293;19;1411;-52
2023/09/03 00:20:18;;;;;;;;;;;;;;;26.95;61.12;101239.41;7393622;19;1847;-51
2023/09/03 00:22:46;;;;;;;;;;;;;;;26.98;61.29;101253.50;7396273;19;1825;-52
2023/09/03 00:25:15;;;;;;;;;;;;;;;26.99;61.24;101254.31;7396489;19;1815;-50
2023/09/03 00:27:43;;;;;;;;;;;;;;;26.98;61.35;101256.19;7395224;19;1904;-50
2023/09/03 00:30:12;;;;;;;;;;;;;;;27.00;61.09;101237.03;7396322;19;1731;-52
2023/09/03 00:32:43;;;;;;;;;;;;;;;26.98;61.29;101244.50;7393452;19;1681;-51
2023/09/03 00:35:11;;;;;;;;;;;;;;;26.98;61.24;101236.38;7395401;19;1838;-51
2023/09/03 00:37:40;;;;;;;;;;;;;;;26.96;61.42;101236.53;7396757;19;1833;-51
2023/09/03 00:40:09;;;;;;;;;;;;;;;26.95;61.30;101248.41;7397729;19;1864;-51
2023/09/03 00:42:37;;;;;;;;;;;;;;;26.95;61.33;101251.13;7401607;19;1938;-51
2023/09/03 00:45:06;;;;;;;;;;;;;;;27.03;61.19;101250.22;7401654;19;1941;-50
2023/09/03 00:47:35;;;;;;;;;;;;;;;26.98;61.03;101255.38;7402647;19;1732;-50
2023/09/03 00:50:07;;;;;;;;;;;;;;;26.97;61.22;101238.22;7401601;19;1730;-51
2023/09/03 00:52:35;;;;;;;;;;;;;;;26.98;61.44;101244.50;7401259;19;1861;-51
2023/09/03 00:55:04;;;;;;;;;;;;;;;26.93;61.33;101255.88;7402300;19;1837;-51
2023/09/03 00:57:32;;;;;;;;;;;;;;;26.95;61.10;101250.28;7402302;19;1835;-51
2023/09/03 01:00:01;;;;;;;;;;;;;;;26.94;61.14;101248.59;7401585;19;1845;-51
2023/09/03 01:02:29;;;;;;;;;;;;;;;26.94;61.26;101241.28;7403255;19;1773;-52
2023/09/03 01:04:58;;;;;;;;;;;;;;;26.95;61.13;101248.41;7403323;19;1719;-52
2023/09/03 01:07:30;;;;;;;;;;;;;;;26.93;61.12;101257.75;7401538;19;1505;-52
2023/09/03 01:10:01;;;;;;;;;;;;;;;26.92;61.16;101253.34;7400784;19;2274;-52
2023/09/03 01:12:31;;;;;;;;;;;;;;;26.94;61.34;101257.56;7402155;19;1809;-51
2023/09/03 01:15:02;;;;;;;;;;;;;;;26.94;61.26;101259.47;7402668;19;1422;-51
2023/09/03 01:17:34;;;;;;;;;;;;;;;26.92;61.12;101250.66;7402788;19;1813;-51
2023/09/03 01:20:07;;;;;;;;;;;;;;;26.94;61.30;101263.00;7399936;19;1882;-50
2023/09/03 01:23:02;;;;;;;;;;;;;;;26.90;61.03;101255.38;7401128;19;1936;-51
2023/09/03 01:25:43;;;;;;;;;;;;;;;26.87;61.33;101256.56;7402557;19;1328;-51
2023/09/03 01:28:27;;;;;;;;;;;;;;;26.90;61.36;101261.66;7401203;19;1385;-51
2023/09/03 01:30:58;;;;;;;;;;;;;;;26.92;61.35;101262.34;7402933;19;1040;-51
2023/09/03 01:33:28;;;;;;;;;;;;;;;26.92;61.29;101265.06;7400329;19;1896;-52
2023/09/03 01:35:57;;;;;;;;;;;;;;;26.96;61.31;101263.69;7401779;19;1845;-51
2023/09/03 01:38:25;;;;;;;;;;;;;;;26.90;61.36;101263.50;7401400;19;1712;-50
2023/09/03 01:40:55;;;;;;;;;;;;;;;26.90;61.32;101258.97;7398792;19;1878;-50
2023/09/03 01:43:26;;;;;;;;;;;;;;;26.90;61.24;101258.97;7400831;19;1862;-51
2023/09/03 01:45:57;;;;;;;;;;;;;;;26.87;61.38;101258.47;7401057;19;1698;-51
2023/09/03 01:48:31;;;;;;;;;;;;;;;26.88;60.98;101243.84;7400643;19;1747;-51
2023/09/03 01:51:09;;;;;;;;;;;;;;;26.88;61.19;101252.84;7400100;19;1691;-51
2023/09/03 01:53:41;;;;;;;;;;;;;;;26.85;61.12;101264.06;7400731;19;1438;-51
2023/09/03 01:56:10;;;;;;;;;;;;;;;26.88;61.33;101255.56;7400937;19;1377;-51
2023/09/03 01:58:43;;;;;;;;;;;;;;;26.89;61.24;101259.97;7400738;19;1957;-52
2023/09/03 02:01:11;;;;;;;;;;;;;;;26.87;61.35;101253.88;7400715;19;1884;-51
2023/09/03 02:03:40;;;;;;;;;;;;;;;26.84;61.09;101251.53;7399541;19;1893;-51
2023/09/03 02:06:09;;;;;;;;;;;;;;;26.87;61.17;101237.59;7400507;19;1399;-50
2023/09/03 02:08:37;;;;;;;;;;;;;;;26.89;61.29;101250.97;7400297;19;1866;-50
2023/09/03 02:11:05;;;;;;;;;;;;;;;26.86;61.23;101251.31;7400405;19;1744;-50
2023/09/03 02:13:35;;;;;;;;;;;;;;;26.86;61.24;101245.91;7399188;19;1849;-50
2023/09/03 02:16:06;;;;;;;;;;;;;;;26.86;61.04;101246.75;7399468;19;1544;-50
2023/09/03 02:18:34;;;;;;;;;;;;;;;26.85;61.19;101239.63;7399964;19;1824;-51
2023/09/03 02:21:02;;;;;;;;;;;;;;;26.86;61.40;101251.31;7399947;19;1837;-51
2023/09/03 02:23:31;;;;;;;;;;;;;;;26.85;61.05;101242.34;7400989;19;1651;-53
2023/09/03 02:26:03;;;;;;;;;;;;;;;26.81;61.22;101237.44;7400217;19;1917;-52
2023/09/03 02:28:33;;;;;;;;;;;;;;;26.83;61.29;101238.13;7399131;19;1967;-51
2023/09/03 02:31:02;;;;;;;;;;;;;;;26.84;61.18;101235.25;7399791;19;1843;-51
2023/09/03 02:33:33;;;;;;;;;;;;;;;26.83;61.25;101243.56;7398982;19;1440;-51
2023/09/03 02:36:02;;;;;;;;;;;;;;;26.87;61.03;101250.31;7399673;19;1783;-51
2023/09/03 02:38:30;;;;;;;;;;;;;;;26.84;61.16;101242.50;7399611;19;1735;-50
2023/09/03 02:40:59;;;;;;;;;;;;;;;26.82;61.30;101236.41;7398277;19;1871;-51
2023/09/03 02:43:27;;;;;;;;;;;;;;;26.82;61.09;101245.44;7399166;19;1478;-52
2023/09/03 02:45:55;;;;;;;;;;;;;;;26.82;61.22;101249.97;7400029;19;1785;-52
2023/09/03 02:48:23;;;;;;;;;;;;;;;26.81;61.07;101256.44;7395427;19;1808;-50
2023/09/03 02:50:54;;;;;;;;;;;;;;;26.85;61.24;101245.06;7397727;19;1691;-50
2023/09/03 02:53:23;;;;;;;;;;;;;;;26.82;61.21;101245.44;7397544;19;1748;-50
2023/09/03 02:55:51;;;;;;;;;;;;;;;26.80;61.22;101239.34;7397752;19;1825;-50
2023/09/03 02:58:19;;;;;;;;;;;;;;;26.80;61.18;101242.03;7397037;19;1782;-51
2023/09/03 03:00:47;;;;;;;;;;;;;;;26.82;61.03;101250.84;7398509;19;1838;-50
2023/09/03 03:03:16;;;;;;;;;;;;;;;26.85;61.06;101247.78;7395750;19;1874;-51
2023/09/03 03:05:44;;;;;;;;;;;;;;;26.80;60.92;101239.34;7398130;19;1485;-51
2023/09/03 03:08:15;;;;;;;;;;;;;;;26.83;60.99;101247.09;7397247;19;1410;-51
2023/09/03 03:10:43;;;;;;;;;;;;;;;26.84;61.03;101247.94;7397171;19;1489;-50
2023/09/03 03:13:11;;;;;;;;;;;;;;;26.83;61.26;101255.25;7397391;19;1747;-50
2023/09/03 03:15:40;;;;;;;;;;;;;;;26.85;61.24;101250.47;7398910;19;1721;-50
2023/09/03 03:18:08;;;;;;;;;;;;;;;26.83;60.96;101238.97;7397987;19;1881;-51
2023/09/03 03:20:36;;;;;;;;;;;;;;;26.84;61.07;101246.09;7396255;19;1968;-51
2023/09/03 03:23:05;;;;;;;;;;;;;;;26.90;61.16;101258.97;7397953;19;1770;-51
2023/09/03 03:25:36;;;;;;;;;;;;;;;26.82;61.04;101278.00;7397846;19;1727;-52
2023/09/03 03:28:04;;;;;;;;;;;;;;;26.79;61.19;101249.31;7398382;19;1838;-51
2023/09/03 03:30:33;;;;;;;;;;;;;;;26.80;61.15;101242.03;7397392;19;1861;-51
2023/09/03 03:33:01;;;;;;;;;;;;;;;26.77;61.06;101250.53;7396338;19;1439;-51
2023/09/03 03:35:30;;;;;;;;;;;;;;;26.79;61.21;101245.75;7397561;19;1524;-51
2023/09/03 03:37:58;;;;;;;;;;;;;;;26.77;61.16;101242.38;7394317;19;1377;-51
2023/09/03 03:40:26;;;;;;;;;;;;;;;26.78;60.96;101247.63;7394692;19;2578;-51
2023/09/03 03:42:57;;;;;;;;;;;;;;;26.81;61.14;101249.16;7397762;19;1224;-51
2023/09/03 03:45:25;;;;;;;;;;;;;;;26.83;61.14;101244.38;7397188;19;1873;-50
2023/09/03 03:47:54;;;;;;;;;;;;;;;26.82;61.13;101275.28;7396083;19;1973;-51
2023/09/03 03:50:22;;;;;;;;;;;;;;;26.79;61.18;101265.59;7395959;19;1599;-51
2023/09/03 03:52:50;;;;;;;;;;;;;;;26.73;61.34;101254.59;7395761;19;1391;-51
2023/09/03 03:55:18;;;;;;;;;;;;;;;26.78;61.04;101246.81;7396200;19;1643;-51
2023/09/03 03:57:47;;;;;;;;;;;;;;;26.79;61.16;101251.19;7394981;19;1617;-50
2023/09/03 04:00:18;;;;;;;;;;;;;;;26.77;61.18;101245.09;7395795;19;1866;-51
2023/09/03 04:02:46;;;;;;;;;;;;;;;26.78;61.18;101254.94;7395685;19;1628;-51
2023/09/03 04:05:15;;;;;;;;;;;;;;;26.77;61.11;101256.78;7396435;19;1588;-50
2023/09/03 04:07:44;;;;;;;;;;;;;;;26.74;61.28;101242.72;7397033;19;1724;-50
2023/09/03 04:10:13;;;;;;;;;;;;;;;26.74;61.16;101249.00;7396535;19;1211;-50
2023/09/03 04:12:41;;;;;;;;;;;;;;;26.74;61.36;101253.56;7395768;19;1847;-50
2023/09/03 04:15:10;;;;;;;;;;;;;;;26.77;60.83;101243.22;7399134;19;1556;-51
2023/09/03 04:17:41;;;;;;;;;;;;;;;26.81;60.90;101248.31;7402870;19;1851;-50
2023/09/03 04:20:11;;;;;;;;;;;;;;;26.83;60.73;101257.13;7402903;19;1839;-51
2023/09/03 04:22:39;;;;;;;;;;;;;;;26.84;60.73;101259.66;7402169;19;1847;-51
2023/09/03 04:25:09;;;;;;;;;;;;;;;26.76;60.99;101249.69;7401126;19;1932;-51
2023/09/03 04:27:38;;;;;;;;;;;;;;;26.79;60.66;101249.31;7403557;19;1831;-51
2023/09/03 04:30:06;;;;;;;;;;;;;;;26.81;61.01;101238.28;7403520;19;1802;-51
2023/09/03 04:32:34;;;;;;;;;;;;;;;26.81;60.85;101251.84;7401554;19;1802;-51
2023/09/03 04:35:06;;;;;;;;;;;;;;;26.85;60.91;101255.91;7403733;19;1723;-50
2023/09/03 04:37:34;;;;;;;;;;;;;;;26.79;60.72;101253.91;7403842;19;1843;-51
2023/09/03 04:40:03;;;;;;;;;;;;;;;26.77;60.92;101264.09;7402377;19;1889;-51
2023/09/03 04:42:31;;;;;;;;;;;;;;;26.82;61.09;101259.00;7402473;19;1948;-51
2023/09/03 04:44:59;;;;;;;;;;;;;;;26.79;60.93;101243.06;7402203;19;2100;-51
2023/09/03 04:47:29;;;;;;;;;;;;;;;26.80;60.75;101247.47;7402752;19;1760;-50
2023/09/03 04:49:57;;;;;;;;;;;;;;;26.80;60.57;101258.31;7401923;19;1810;-50
2023/09/03 04:52:28;;;;;;;;;;;;;;;26.84;60.61;101256.94;7402000;19;1787;-51
2023/09/03 04:54:56;;;;;;;;;;;;;;;26.87;60.52;101253.88;7402146;19;1719;-50
2023/09/03 04:57:25;;;;;;;;;;;;;;;26.86;60.60;101244.06;7401576;19;1789;-51
2023/09/03 04:59:53;;;;;;;;;;;;;;;26.88;60.58;101247.44;7402843;19;1847;-50
2023/09/03 05:02:21;;;;;;;;;;;;;;;26.90;60.67;101264.38;7401999;19;1683;-51
2023/09/03 05:04:49;;;;;;;;;;;;;;;26.88;60.59;101255.56;7403243;19;965;-51
2023/09/03 05:07:18;;;;;;;;;;;;;;;26.91;60.54;101255.22;7402131;19;1920;-51
2023/09/03 05:09:49;;;;;;;;;;;;;;;26.91;60.61;101251.66;7400904;19;1968;-51
2023/09/03 05:12:17;;;;;;;;;;;;;;;26.93;60.27;101250.44;7402583;19;1692;-51
2023/09/03 05:14:45;;;;;;;;;;;;;;;26.98;60.30;101244.50;7401384;19;1763;-51
2023/09/03 05:17:14;;;;;;;;;;;;;;;26.99;60.25;101240.75;7401564;19;1707;-50
2023/09/03 05:19:42;;;;;;;;;;;;;;;27.02;60.33;101254.00;7401924;19;1731;-50
2023/09/03 05:22:10;;;;;;;;;;;;;;;27.06;60.06;101251.75;7399404;19;1849;-51
2023/09/03 05:24:39;;;;;;;;;;;;;;;27.09;60.12;101246.81;7402603;19;1817;-51
2023/09/03 05:27:10;;;;;;;;;;;;;;;27.09;60.17;101251.41;7401589;19;1485;-50
2023/09/03 05:29:38;;;;;;;;;;;;;;;27.08;59.90;101234.28;7401080;19;1925;-50
2023/09/03 05:32:07;;;;;;;;;;;;;;;27.09;60.04;101233.22;7399373;19;1660;-51
2023/09/03 05:34:35;;;;;;;;;;;;;;;27.20;59.75;101229.28;7403128;19;1022;-51
2023/09/03 05:37:04;;;;;;;;;;;;;;;27.10;60.08;101255.81;7400506;19;1856;-51
2023/09/03 05:39:33;;;;;;;;;;;;;;;27.09;60.15;101254.94;7401610;19;1735;-51
2023/09/03 05:42:01;;;;;;;;;;;;;;;27.06;60.32;101240.88;7399430;19;1857;-50
2023/09/03 05:44:32;;;;;;;;;;;;;;;27.10;59.84;101247.69;7400966;19;1546;-51
2023/09/03 05:47:00;;;;;;;;;;;;;;;26.91;60.29;101238.91;7400862;19;1742;-50
2023/09/03 05:49:28;;;;;;;;;;;;;;;27.05;60.12;101244.63;7400014;19;1556;-51
2023/09/03 05:51:57;;;;;;;;;;;;;;;26.91;60.76;101238.91;7400762;19;1639;-51
2023/09/03 05:54:25;;;;;;;;;;;;;;;26.92;60.55;101242.50;7400262;19;1735;-51
2023/09/03 05:56:53;;;;;;;;;;;;;;;26.91;60.51;101240.78;7400542;19;1342;-50
2023/09/03 05:59:22;;;;;;;;;;;;;;;27.06;60.27;101236.31;7396773;19;2104;-51
2023/09/03 06:01:52;;;;;;;;;;;;;;;27.17;60.09;101233.19;7394793;19;1985;-50
2023/09/03 06:04:21;;;;;;;;;;;;;;;27.17;60.00;101240.50;7401999;19;1019;-51
2023/09/03 06:06:49;;;;;;;;;;;;;;;27.02;60.54;101232.28;7399048;19;1921;-50
2023/09/03 06:09:18;;;;;;;;;;;;;;;27.05;60.51;101236.50;7399754;19;1830;-51
2023/09/03 06:11:47;;;;;;;;;;;;;;;26.98;60.52;101234.50;7399399;19;1806;-50
2023/09/03 06:14:15;;;;;;;;;;;;;;;27.02;60.14;101231.41;7400293;19;1735;-51
2023/09/03 06:16:44;;;;;;;;;;;;;;;26.97;60.46;101232.78;7400421;19;1764;-50
2023/09/03 06:19:15;;;;;;;;;;;;;;;26.99;60.58;101233.44;7399610;19;1509;-51
2023/09/03 06:21:43;;;;;;;;;;;;;;;27.02;60.67;101247.69;7397086;19;1852;-52
2023/09/03 06:24:11;;;;;;;;;;;;;;;27.04;60.61;101237.50;7399368;19;1468;-51
2023/09/03 06:26:40;;;;;;;;;;;;;;;27.04;60.29;101242.94;7397983;19;2570;-51
2023/09/03 06:29:08;;;;;;;;;;;;;;;27.08;60.44;101241.53;7399563;19;1759;-51
2023/09/03 06:31:36;;;;;;;;;;;;;;;27.05;60.34;101241.91;7399341;19;1377;-52
2023/09/03 06:34:04;;;;;;;;;;;;;;;27.10;60.56;101221.38;7399547;19;1834;-51
2023/09/03 06:36:35;;;;;;;;;;;;;;;27.29;59.88;101220.06;7395729;19;1862;-52
2023/09/03 06:39:04;;;;;;;;;;;;;;;27.19;60.05;101219.44;7397470;19;1759;-50
2023/09/03 06:41:32;;;;;;;;;;;;;;;27.19;59.95;101220.28;7396344;19;1857;-51
2023/09/03 06:44:00;;;;;;;;;;;;;;;27.24;59.92;101219.78;7397791;19;1748;-50
2023/09/03 06:46:28;;;;;;;;;;;;;;;27.28;59.76;101218.41;7398627;19;1754;-50
2023/09/03 06:48:57;;;;;;;;;;;;;;;27.32;60.01;101218.91;7399144;19;1902;-51
2023/09/03 06:51:25;;;;;;;;;;;;;;;27.29;60.02;101233.66;7398740;19;1801;-50
2023/09/03 06:53:56;;;;;;;;;;;;;;;27.17;60.02;101222.31;7399634;19;1770;-51
2023/09/03 06:56:25;;;;;;;;;;;;;;;27.28;60.12;101229.25;7398406;19;1730;-51
2023/09/03 06:58:53;;;;;;;;;;;;;;;27.32;60.11;101236.03;7398865;19;1730;-50
2023/09/03 07:01:21;;;;;;;;;;;;;;;27.38;59.78;101232.59;7397734;19;1866;-50
2023/09/03 07:03:49;;;;;;;;;;;;;;;27.13;59.39;101247.31;7396735;19;1845;-51
2023/09/03 07:06:18;;;;;;;;;;;;;;;27.07;60.49;101227.13;7397176;19;1475;-50
2023/09/03 07:08:46;;;;;;;;;;;;;;;27.27;60.17;101235.69;7395597;19;1747;-50
2023/09/03 07:11:17;;;;;;;;;;;;;;;27.33;59.74;101229.56;7398789;19;1619;-51
2023/09/03 07:13:45;;;;;;;;;;;;;;;27.36;59.90;101231.91;7397131;19;1891;-51
2023/09/03 07:16:13;;;;;;;;;;;;;;;27.38;59.65;101224.44;7397944;19;1924;-50
2023/09/03 07:18:42;;;;;;;;;;;;;;;27.40;59.76;101228.81;7398888;19;1827;-51
2023/09/03 07:21:10;;;;;;;;;;;;;;;27.37;59.99;101227.31;7397768;19;1851;-51
2023/09/03 07:23:38;;;;;;;;;;;;;;;27.31;60.17;101241.63;7399041;19;1374;-50
2023/09/03 07:26:08;;;;;;;;;;;;;;;27.25;60.30;101243.19;7399494;19;1945;-50
2023/09/03 07:28:39;;;;;;;;;;;;;;;27.18;60.33;101234.06;7395831;19;1709;-50
2023/09/03 07:31:07;;;;;;;;;;;;;;;27.18;60.32;101243.03;7397563;19;1802;-51
2023/09/03 07:33:38;;;;;;;;;;;;;;;27.21;60.31;101238.28;7398327;19;1806;-51
2023/09/03 07:36:11;;;;;;;;;;;;;;;27.29;60.31;101227.38;7398017;19;1753;-50
2023/09/03 07:38:40;;;;;;;;;;;;;;;27.29;60.24;101244.50;7396332;19;1760;-51
2023/09/03 07:41:08;;;;;;;;;;;;;;;27.33;60.25;101245.84;7396897;19;1861;-51
2023/09/03 07:43:42;;;;;;;;;;;;;;;27.31;60.01;101236.19;7398195;19;1728;-51
2023/09/03 07:46:10;;;;;;;;;;;;;;;27.36;60.09;101234.63;7398656;19;1794;-50
2023/09/03 07:48:39;;;;;;;;;;;;;;;27.30;60.16;101235.34;7395944;19;1439;-51
2023/09/03 07:51:07;;;;;;;;;;;;;;;27.23;60.22;101242.47;7396424;19;1460;-50
2023/09/03 07:53:35;;;;;;;;;;;;;;;27.22;60.53;101223.66;7397550;19;1378;-50
2023/09/03 07:56:03;;;;;;;;;;;;;;;27.18;60.36;101231.34;7397487;19;1868;-51
2023/09/03 07:58:32;;;;;;;;;;;;;;;27.14;60.91;101244.41;7397143;19;1965;-50
2023/09/03 08:01:04;;;;;;;;;;;;;;;27.04;60.90;101238.38;7397570;19;1912;-51
2023/09/03 08:03:34;;;;;;;;;;;;;;;27.03;61.01;101231.22;7397122;19;1387;-51
2023/09/03 08:06:03;;;;;;;;;;;;;;;27.03;61.00;101238.53;7398074;19;1735;-51
2023/09/03 08:08:31;;;;;;;;;;;;;;;27.06;60.84;101240.88;7397346;19;1783;-50
2023/09/03 08:11:00;;;;;;;;;;;;;;;27.02;61.02;101231.41;7397128;19;1967;-50
2023/09/03 08:13:29;;;;;;;;;;;;;;;27.07;60.79;101215.44;7396812;19;1688;-52
2023/09/03 08:15:57;;;;;;;;;;;;;;;27.11;60.89;101225.75;7396248;19;1714;-51
2023/09/03 08:18:28;;;;;;;;;;;;;;;27.09;60.93;101235.09;7396335;19;1707;-51
2023/09/03 08:20:56;;;;;;;;;;;;;;;27.09;61.12;101213.38;7395537;19;1843;-50
2023/09/03 08:23:25;;;;;;;;;;;;;;;27.05;60.88;101222.91;7395273;19;1834;-51
2023/09/03 08:25:53;;;;;;;;;;;;;;;27.16;60.85;101219.81;7396093;19;1805;-50
2023/09/03 08:28:21;;;;;;;;;;;;;;;27.17;60.69;101222.31;7396027;19;1952;-51
2023/09/03 08:30:49;;;;;;;;;;;;;;;27.10;60.89;101220.53;7397158;19;1886;-52
2023/09/03 08:33:18;;;;;;;;;;;;;;;27.08;61.17;101217.13;7395330;19;1802;-52
2023/09/03 08:35:49;;;;;;;;;;;;;;;27.09;60.89;101213.38;7396837;19;1724;-51
2023/09/03 08:38:17;;;;;;;;;;;;;;;27.12;60.84;101218.47;7395951;19;1944;-51
2023/09/03 08:40:46;;;;;;;;;;;;;;;27.11;61.08;101206.75;7395460;19;1810;-51
2023/09/03 08:43:15;;;;;;;;;;;;;;;27.17;60.84;101206.03;7393392;19;1858;-50
2023/09/03 08:45:44;;;;;;;;;;;;;;;27.18;60.76;101204.19;7396906;19;1866;-51
2023/09/03 08:48:13;;;;;;;;;;;;;;;27.29;60.65;101198.34;7395965;19;1744;-51
2023/09/03 08:50:41;;;;;;;;;;;;;;;27.51;59.98;101212.13;7395606;19;1858;-50
2023/09/03 08:53:13;;;;;;;;;;;;;;;27.57;59.84;101195.09;7396037;19;1736;-51
2023/09/03 08:55:42;;;;;;;;;;;;;;;27.61;59.89;101177.41;7395329;19;1676;-51
2023/09/03 08:58:10;;;;;;;;;;;;;;;27.65;59.59;101176.00;7394706;19;1754;-52
2023/09/03 09:00:39;;;;;;;;;;;;;;;27.68;59.63;101186.50;7396004;19;1687;-51
2023/09/03 09:03:10;;;;;;;;;;;;;;;27.54;60.12;101181.88;7399797;19;1857;-52
2023/09/03 09:05:39;;;;;;;;;;;;;;;27.44;60.16;101159.56;7403316;19;1025;-51
2023/09/03 09:08:08;;;;;;;;;;;;;;;27.29;60.74;101171.19;7402449;19;1854;-50
2023/09/03 09:10:43;;;;;;;;;;;;;;;27.15;60.97;101164.63;7402262;19;1823;-50
2023/09/03 09:13:13;;;;;;;;;;;;;;;27.12;61.02;101169.63;7401596;19;1829;-51
2023/09/03 09:15:43;;;;;;;;;;;;;;;27.15;60.90;101159.22;7402272;19;1755;-50
2023/09/03 09:18:11;;;;;;;;;;;;;;;27.20;61.10;101161.41;7401193;19;2454;-50
2023/09/03 09:20:40;;;;;;;;;;;;;;;27.32;60.67;101159.16;7401610;19;1748;-51
2023/09/03 09:23:09;;;;;;;;;;;;;;;27.27;60.97;101150.69;7399163;19;1843;-51
2023/09/03 09:25:40;;;;;;;;;;;;;;;27.38;60.62;101142.13;7399448;19;1708;-50
2023/09/03 09:28:12;;;;;;;;;;;;;;;27.54;59.99;101141.97;7400109;19;2464;-50
2023/09/03 09:30:54;;;;;;;;;;;;;;;27.39;60.30;101149.22;7403343;19;1143;-51
2023/09/03 09:33:22;;;;;;;;;;;;;;;27.34;60.50;101138.94;7400992;19;1928;-50
2023/09/03 09:35:51;;;;;;;;;;;;;;;27.36;60.71;101155.03;7402863;19;1731;-51
2023/09/03 09:38:19;;;;;;;;;;;;;;;27.40;60.34;101136.50;7400733;19;1529;-51
2023/09/03 09:40:51;;;;;;;;;;;;;;;27.33;60.90;101158.94;7399541;19;1886;-50
2023/09/03 09:43:19;;;;;;;;;;;;;;;27.30;60.98;101142.19;7397600;19;1838;-51
2023/09/03 09:45:48;;;;;;;;;;;;;;;27.38;60.65;101137.53;7400367;19;1484;-50
2023/09/03 09:48:16;;;;;;;;;;;;;;;27.35;60.76;101121.59;7401296;19;1489;-51
2023/09/03 09:50:45;;;;;;;;;;;;;;;27.49;60.27;101135.41;7400129;19;1882;-51
2023/09/03 09:53:24;;;;;;;;;;;;;;;27.41;60.16;101109.16;7400432;19;1560;-50
2023/09/03 09:56:02;;;;;;;;;;;;;;;27.40;60.54;101120.19;7399546;19;1839;-52
2023/09/03 09:58:40;;;;;;;;;;;;;;;27.39;60.36;101116.63;7400795;19;1513;-51
2023/09/03 10:01:08;;;;;;;;;;;;;;;27.49;60.52;101106.34;7401624;19;1557;-51
2023/09/03 10:03:43;;;;;;;;;;;;;;;27.63;60.02;101096.56;7397731;19;1865;-51
2023/09/03 10:06:11;;;;;;;;;;;;;;;27.46;60.50;101111.34;7400638;19;1537;-51
2023/09/03 10:08:39;;;;;;;;;;;;;;;27.62;60.10;101103.03;7399358;19;1771;-51
2023/09/03 10:11:11;;;;;;;;;;;;;;;27.54;59.93;101098.50;7399915;19;2037;-51
2023/09/03 10:13:39;;;;;;;;;;;;;;;27.73;59.75;101118.84;7398853;19;1563;-50
2023/09/03 10:16:09;;;;;;;;;;;;;;;27.64;59.90;101087.38;7399551;19;1568;-51
2023/09/03 10:18:38;;;;;;;;;;;;;;;27.72;59.58;101095.44;7399296;19;1658;-51
2023/09/03 10:21:08;;;;;;;;;;;;;;;27.70;59.95;101097.50;7399582;19;1509;-51
2023/09/03 10:23:42;;;;;;;;;;;;;;;27.61;60.19;101087.75;7397520;19;1861;-51
2023/09/03 10:26:13;;;;;;;;;;;;;;;27.54;60.42;101081.38;7399662;19;1854;-51
2023/09/03 10:28:44;;;;;;;;;;;;;;;27.49;60.23;101087.34;7398904;19;1485;-51
2023/09/03 10:31:13;;;;;;;;;;;;;;;27.49;60.36;101073.75;7400054;19;1140;-52
2023/09/03 10:33:42;;;;;;;;;;;;;;;27.50;60.29;101074.63;7399185;19;1484;-51
2023/09/03 10:36:14;;;;;;;;;;;;;;;27.46;60.48;101065.16;7399766;19;1443;-51
2023/09/03 10:38:42;;;;;;;;;;;;;;;27.59;60.33;101065.34;7398914;19;1569;-50
2023/09/03 10:41:24;;;;;;;;;;;;;;;27.61;60.06;101062.47;7398828;19;1580;-50
2023/09/03 10:43:53;;;;;;;;;;;;;;;27.55;60.34;101050.44;7397610;19;1905;-51
2023/09/03 10:46:21;;;;;;;;;;;;;;;27.57;60.21;101045.69;7398629;19;1517;-51
2023/09/03 10:48:54;;;;;;;;;;;;;;;27.73;59.70;101055.53;7397283;19;1479;-51
2023/09/03 10:51:36;;;;;;;;;;;;;;;27.64;60.09;101048.50;7398284;19;1504;-50
2023/09/03 10:54:17;;;;;;;;;;;;;;;27.54;60.62;101035.19;7396518;19;1631;-51
2023/09/03 10:57:00;;;;;;;;;;;;;;;27.52;60.38;101035.38;7397389;19;1589;-51
2023/09/03 10:59:51;;;;;;;;;;;;;;;27.64;60.05;101035.75;7398223;19;1537;-51
2023/09/03 11:02:26;;;;;;;;;;;;;;;27.54;60.43;101043.34;7395323;19;2481;-51
2023/09/03 11:05:09;;;;;;;;;;;;;;;27.68;59.86;101044.41;7395545;19;1799;-51
2023/09/03 11:07:37;;;;;;;;;;;;;;;27.76;59.85;101041.59;7393959;19;1673;-51
2023/09/03 11:10:21;;;;;;;;;;;;;;;27.75;59.69;101035.31;7396178;19;1524;-51
2023/09/03 11:12:49;;;;;;;;;;;;;;;27.77;59.61;101022.38;7398486;19;1762;-51
2023/09/03 11:15:20;;;;;;;;;;;;;;;27.82;59.59;101018.25;7397317;19;1660;-51
2023/09/03 11:17:53;;;;;;;;;;;;;;;27.75;59.64;101013.56;7398322;19;1735;-52
2023/09/03 11:20:29;;;;;;;;;;;;;;;27.74;59.92;101013.75;7397996;19;1837;-51
2023/09/03 11:22:58;;;;;;;;;;;;;;;27.72;60.13;101010.38;7397505;19;1837;-52
2023/09/03 11:25:34;;;;;;;;;;;;;;;27.68;59.92;101007.19;7397904;19;1726;-58
2023/09/03 11:28:03;;;;;;;;;;;;;;;27.70;59.91;101004.28;7398932;19;1732;-52
2023/09/03 11:30:34;;;;;;;;;;;;;;;27.80;59.78;100999.41;7398062;19;1751;-52
2023/09/03 11:33:03;;;;;;;;;;;;;;;27.66;60.02;101009.25;7397656;19;1847;-51
2023/09/03 11:35:31;;;;;;;;;;;;;;;27.72;59.97;101003.06;7397020;19;1862;-52
2023/09/03 11:38:00;;;;;;;;;;;;;;;27.80;59.74;100991.25;7397242;19;1949;-51
2023/09/03 11:40:28;;;;;;;;;;;;;;;27.50;60.41;100985.00;7397351;19;1461;-52
2023/09/03 11:42:57;;;;;;;;;;;;;;;27.51;60.53;100990.22;7395477;19;2558;-51
2023/09/03 11:45:25;;;;;;;;;;;;;;;27.61;60.00;100979.06;7397095;19;1739;-52
2023/09/03 11:47:57;;;;;;;;;;;;;;;27.58;60.34;100979.47;7396212;19;1834;-51
2023/09/03 11:50:25;;;;;;;;;;;;;;;27.71;59.91;100960.59;7396001;19;1827;-51
2023/09/03 11:52:58;;;;;;;;;;;;;;;27.71;60.04;100979.63;7395630;19;1450;-51
2023/09/03 11:55:29;;;;;;;;;;;;;;;27.66;60.00;100959.50;7394976;19;1504;-51
2023/09/03 11:57:58;;;;;;;;;;;;;;;27.62;60.42;100958.22;7395836;19;1383;-51
2023/09/03 12:00:26;;;;;;;;;;;;;;;27.52;60.77;100955.78;7397054;19;1587;-51
2023/09/03 12:02:58;;;;;;;;;;;;;;;27.43;60.82;100956.88;7396716;19;1858;-51
2023/09/03 12:05:27;;;;;;;;;;;;;;;27.54;60.67;100953.72;7394618;19;1907;-51
2023/09/03 12:07:55;;;;;;;;;;;;;;;27.63;60.46;100938.13;7395333;19;1536;-51
2023/09/03 12:10:24;;;;;;;;;;;;;;;27.67;60.40;100943.00;7395509;19;1565;-51
2023/09/03 12:12:52;;;;;;;;;;;;;;;27.60;60.30;100933.94;7395922;19;1624;-51
2023/09/03 12:15:21;;;;;;;;;;;;;;;27.65;60.11;100922.50;7395895;19;1613;-51
2023/09/03 12:17:50;;;;;;;;;;;;;;;27.66;60.29;100926.91;7395798;19;1540;-50
2023/09/03 12:20:33;;;;;;;;;;;;;;;27.66;60.38;100919.59;7396506;19;1652;-50
2023/09/03 12:23:14;;;;;;;;;;;;;;;27.50;60.82;100915.22;7395451;19;1849;-52
2023/09/03 12:25:43;;;;;;;;;;;;;;;27.70;60.35;100915.47;7395553;19;1364;-52
2023/09/03 12:28:12;;;;;;;;;;;;;;;27.69;60.25;100911.03;7395960;19;1421;-52
2023/09/03 12:30:53;;;;;;;;;;;;;;;27.75;60.16;100915.75;7395826;19;1693;-52
2023/09/03 12:33:21;;;;;;;;;;;;;;;27.67;60.34;100915.81;7395399;19;1481;-52
2023/09/03 12:36:05;;;;;;;;;;;;;;;27.71;59.98;100913.59;7400959;19;1061;-51
2023/09/03 12:38:48;;;;;;;;;;;;;;;27.65;60.40;100909.75;7405485;19;995;-50
2023/09/03 12:41:17;;;;;;;;;;;;;;;27.66;60.22;100900.56;7402102;19;1327;-51
2023/09/03 12:43:45;;;;;;;;;;;;;;;27.65;60.24;100898.88;7402327;19;1867;-50
2023/09/03 12:46:13;;;;;;;;;;;;;;;27.64;60.34;100902.63;7401239;19;1493;-52
2023/09/03 12:48:42;;;;;;;;;;;;;;;27.71;60.31;100898.13;7401744;19;1693;-52
2023/09/03 12:51:10;;;;;;;;;;;;;;;27.76;60.02;100892.97;7400720;19;1536;-52
2023/09/03 12:53:42;;;;;;;;;;;;;;;27.83;59.83;100897.63;7399046;19;1537;-51
2023/09/03 12:56:10;;;;;;;;;;;;;;;27.83;59.97;100894.91;7398485;19;2439;-51
2023/09/03 12:58:39;;;;;;;;;;;;;;;27.85;59.97;100882.81;7400777;19;1501;-51
2023/09/03 13:01:08;;;;;;;;;;;;;;;27.83;59.63;100887.59;7401862;19;1857;-52